sensor_id;sensor_type;location;lat;lon;timestamp;P1;durP1;ratioP1;P2;durP2;ratioP2
38037;SDS011;23843;51.320;12.340;2022-10-16T04:32:08;0.10;;;0.10;;
38037;SDS011;23843;51.320;12.340;2022-10-16T04:34:34;0.10;;;0.10;;
38037;SDS011;23843;51.320;12.340;2022-10-16T04:36:59;0.10;;;0.10;;
38037;SDS011;23843;51.320;12.340;2022-10-16T04:39:25;0.10;;;0.10;;
38037;SDS011;23843;51.320;12.340;2022-10-16T04:41:50;0.00;;;0.00;;
38037;SDS011;23843;51.320;12.340;2022-10-16T04:44:16;0.10;;;0.10;;
38037;SDS011;23843;51.320;12.340;2022-10-16T04:46:41;0.03;;;0.03;;
38037;SDS011;23843;51.320;12.340;2022-10-16T04:49:08;0.10;;;0.10;;
38037;SDS011;23843;51.320;12.340;2022-10-16T04:51:33;0.10;;;0.10;;
38037;SDS011;23843;51.320;12.340;2022-10-16T04:53:58;0.10;;;0.10;;
38037;SDS011;23843;51.320;12.340;2022-10-16T04:56:24;0.10;;;0.10;;
38037;SDS011;23843;51.320;12.340;2022-10-16T04:58:49;0.10;;;0.10;;
38037;SDS011;23843;51.320;12.340;2022-10-16T05:01:15;0.03;;;0.03;;
38037;SDS011;23843;51.320;12.340;2022-10-16T05:03:40;0.00;;;0.00;;
38037;SDS011;23843;51.320;12.340;2022-10-16T05:06:07;0.10;;;0.10;;
38037;SDS011;23843;51.320;12.340;2022-10-16T05:08:32;0.10;;;0.10;;
38037;SDS011;23843;51.320;12.340;2022-10-16T05:10:58;0.10;;;0.10;;
38037;SDS011;23843;51.320;12.340;2022-10-16T05:13:23;0.00;;;0.00;;
38037;SDS011;23843;51.320;12.340;2022-10-16T05:15:49;0.00;;;0.00;;
38037;SDS011;23843;51.320;12.340;2022-10-16T05:18:14;0.10;;;0.10;;
38037;SDS011;23843;51.320;12.340;2022-10-16T05:20:40;0.00;;;0.00;;
38037;SDS011;23843;51.320;12.340;2022-10-16T05:23:07;0.20;;;0.20;;
38037;SDS011;23843;51.320;12.340;2022-10-16T05:25:32;0.20;;;0.20;;
38037;SDS011;23843;51.320;12.340;2022-10-16T05:27:58;0.60;;;0.60;;
38037;SDS011;23843;51.320;12.340;2022-10-16T05:30:23;0.20;;;0.13;;
38037;SDS011;23843;51.320;12.340;2022-10-16T05:32:49;0.10;;;0.10;;
38037;SDS011;23843;51.320;12.340;2022-10-16T05:35:15;0.10;;;0.10;;
38037;SDS011;23843;51.320;12.340;2022-10-16T05:37:41;0.10;;;0.10;;
38037;SDS011;23843;51.320;12.340;2022-10-16T05:40:09;0.10;;;0.10;;
38037;SDS011;23843;51.320;12.340;2022-10-16T05:42:35;0.00;;;0.00;;
38037;SDS011;23843;51.320;12.340;2022-10-16T05:45:00;0.10;;;0.10;;
38037;SDS011;23843;51.320;12.340;2022-10-16T05:47:25;0.10;;;0.10;;
38037;SDS011;23843;51.320;12.340;2022-10-16T05:49:51;0.70;;;0.70;;
38037;SDS011;23843;51.320;12.340;2022-10-16T05:52:16;0.10;;;0.10;;
38037;SDS011;23843;51.320;12.340;2022-10-16T05:54:41;0.10;;;0.10;;
38037;SDS011;23843;51.320;12.340;2022-10-16T05:57:08;0.10;;;0.10;;
38037;SDS011;23843;51.320;12.340;2022-10-16T05:59:34;0.10;;;0.10;;
38037;SDS011;23843;51.320;12.340;2022-10-16T06:01:59;0.00;;;0.00;;
38037;SDS011;23843;51.320;12.340;2022-10-16T06:04:24;0.00;;;0.00;;
38037;SDS011;23843;51.320;12.340;2022-10-16T06:06:50;0.10;;;0.10;;
38037;SDS011;23843;51.320;12.340;2022-10-16T06:09:15;0.10;;;0.10;;
38037;SDS011;23843;51.320;12.340;2022-10-16T06:11:40;0.10;;;0.10;;
38037;SDS011;23843;51.320;12.340;2022-10-16T06:14:08;0.07;;;0.07;;
38037;SDS011;23843;51.320;12.340;2022-10-16T06:16:34;0.10;;;0.10;;
38037;SDS011;23843;51.320;12.340;2022-10-16T06:19:00;0.00;;;0.00;;
38037;SDS011;23843;51.320;12.340;2022-10-16T06:21:26;0.10;;;0.10;;
38037;SDS011;23843;51.320;12.340;2022-10-16T06:23:52;0.10;;;0.10;;
38037;SDS011;23843;51.320;12.340;2022-10-16T06:26:19;0.00;;;0.00;;
38037;SDS011;23843;51.320;12.340;2022-10-16T06:28:46;0.10;;;0.10;;
38037;SDS011;23843;51.320;12.340;2022-10-16T06:31:13;0.03;;;0.03;;
38037;SDS011;23843;51.320;12.340;2022-10-16T06:33:40;0.10;;;0.10;;
38037;SDS011;23843;51.320;12.340;2022-10-16T06:36:06;0.10;;;0.10;;
38037;SDS011;23843;51.320;12.340;2022-10-16T06:38:34;0.00;;;0.00;;
38037;SDS011;23843;51.320;12.340;2022-10-16T06:41:01;0.10;;;0.10;;
38037;SDS011;23843;51.320;12.340;2022-10-16T06:43:28;0.10;;;0.10;;
38037;SDS011;23843;51.320;12.340;2022-10-16T06:45:54;0.10;;;0.10;;
38037;SDS011;23843;51.320;12.340;2022-10-16T06:48:21;0.10;;;0.10;;
38037;SDS011;23843;51.320;12.340;2022-10-16T06:50:55;0.10;;;0.10;;
38037;SDS011;23843;51.320;12.340;2022-10-16T06:53:21;0.10;;;0.10;;
38037;SDS011;23843;51.320;12.340;2022-10-16T06:55:46;0.10;;;0.10;;
38037;SDS011;23843;51.320;12.340;2022-10-16T06:58:11;0.10;;;0.10;;
38037;SDS011;23843;51.320;12.340;2022-10-16T07:00:37;0.10;;;0.10;;
38037;SDS011;23843;51.320;12.340;2022-10-16T07:03:02;0.10;;;0.10;;
38037;SDS011;23843;51.320;12.340;2022-10-16T07:05:29;0.10;;;0.10;;
38037;SDS011;23843;51.320;12.340;2022-10-16T07:07:54;0.10;;;0.10;;
38037;SDS011;23843;51.320;12.340;2022-10-16T07:10:20;0.00;;;0.00;;
38037;SDS011;23843;51.320;12.340;2022-10-16T07:12:45;0.20;;;0.10;;
38037;SDS011;23843;51.320;12.340;2022-10-16T07:15:10;0.63;;;0.30;;
38037;SDS011;23843;51.320;12.340;2022-10-16T07:17:36;0.70;;;0.70;;
38037;SDS011;23843;51.320;12.340;2022-10-16T07:20:01;0.40;;;0.40;;
38037;SDS011;23843;51.320;12.340;2022-10-16T07:22:29;0.40;;;0.40;;
38037;SDS011;23843;51.320;12.340;2022-10-16T07:24:54;0.20;;;0.20;;
38037;SDS011;23843;51.320;12.340;2022-10-16T07:27:19;0.13;;;0.13;;
38037;SDS011;23843;51.320;12.340;2022-10-16T07:29:45;0.13;;;0.13;;
38037;SDS011;23843;51.320;12.340;2022-10-16T07:32:10;0.10;;;0.10;;
38037;SDS011;23843;51.320;12.340;2022-10-16T07:34:36;0.10;;;0.10;;
38037;SDS011;23843;51.320;12.340;2022-10-16T07:37:01;0.10;;;0.10;;
38037;SDS011;23843;51.320;12.340;2022-10-16T07:39:28;0.10;;;0.10;;
38037;SDS011;23843;51.320;12.340;2022-10-16T07:41:53;0.20;;;0.20;;
38037;SDS011;23843;51.320;12.340;2022-10-16T07:44:18;0.00;;;0.00;;
38037;SDS011;23843;51.320;12.340;2022-10-16T07:46:44;0.10;;;0.10;;
38037;SDS011;23843;51.320;12.340;2022-10-16T07:49:09;0.10;;;0.10;;
38037;SDS011;23843;51.320;12.340;2022-10-16T07:51:34;0.10;;;0.10;;
38037;SDS011;23843;51.320;12.340;2022-10-16T07:54:00;0.40;;;0.40;;
38037;SDS011;23843;51.320;12.340;2022-10-16T07:56:26;0.10;;;0.10;;
38037;SDS011;23843;51.320;12.340;2022-10-16T07:58:52;0.10;;;0.10;;
38037;SDS011;23843;51.320;12.340;2022-10-16T08:01:18;0.10;;;0.10;;
38037;SDS011;23843;51.320;12.340;2022-10-16T08:03:43;0.10;;;0.10;;
38037;SDS011;23843;51.320;12.340;2022-10-16T08:06:09;0.10;;;0.10;;
38037;SDS011;23843;51.320;12.340;2022-10-16T08:08:35;0.20;;;0.20;;
38037;SDS011;23843;51.320;12.340;2022-10-16T08:11:00;0.10;;;0.10;;
38037;SDS011;23843;51.320;12.340;2022-10-16T08:13:27;0.13;;;0.13;;
38037;SDS011;23843;51.320;12.340;2022-10-16T08:15:53;0.20;;;0.20;;
38037;SDS011;23843;51.320;12.340;2022-10-16T08:18:19;0.32;;;0.32;;
38037;SDS011;23843;51.320;12.340;2022-10-16T08:20:44;0.20;;;0.20;;
38037;SDS011;23843;51.320;12.340;2022-10-16T08:23:10;1.05;;;0.30;;
38037;SDS011;23843;51.320;12.340;2022-10-16T08:25:36;0.43;;;0.30;;
38037;SDS011;23843;51.320;12.340;2022-10-16T08:28:03;0.32;;;0.32;;
38037;SDS011;23843;51.320;12.340;2022-10-16T08:30:30;0.28;;;0.28;;
38037;SDS011;23843;51.320;12.340;2022-10-16T08:32:55;0.20;;;0.20;;
38037;SDS011;23843;51.320;12.340;2022-10-16T08:35:20;0.20;;;0.20;;
38037;SDS011;23843;51.320;12.340;2022-10-16T08:37:46;0.10;;;0.10;;
38037;SDS011;23843;51.320;12.340;2022-10-16T08:40:15;0.10;;;0.10;;
38037;SDS011;23843;51.320;12.340;2022-10-16T08:42:47;0.00;;;0.00;;
38037;SDS011;23843;51.320;12.340;2022-10-16T08:45:37;0.20;;;0.20;;
38037;SDS011;23843;51.320;12.340;2022-10-16T08:48:16;0.30;;;0.30;;
38037;SDS011;23843;51.320;12.340;2022-10-16T08:50:45;0.82;;;0.50;;
38037;SDS011;23843;51.320;12.340;2022-10-16T08:53:14;0.45;;;0.20;;
38037;SDS011;23843;51.320;12.340;2022-10-16T08:55:43;0.28;;;0.20;;
38037;SDS011;23843;51.320;12.340;2022-10-16T08:58:12;0.20;;;0.20;;
38037;SDS011;23843;51.320;12.340;2022-10-16T09:00:40;0.13;;;0.13;;
38037;SDS011;23843;51.320;12.340;2022-10-16T09:03:10;0.20;;;0.20;;
38037;SDS011;23843;51.320;12.340;2022-10-16T09:05:45;0.15;;;0.15;;
38037;SDS011;23843;51.320;12.340;2022-10-16T09:08:21;0.70;;;0.70;;
38037;SDS011;23843;51.320;12.340;2022-10-16T09:10:56;0.90;;;0.90;;
38037;SDS011;23843;51.320;12.340;2022-10-16T09:13:26;0.40;;;0.40;;
38037;SDS011;23843;51.320;12.340;2022-10-16T09:15:57;0.22;;;0.22;;
38037;SDS011;23843;51.320;12.340;2022-10-16T09:18:33;0.20;;;0.20;;
38037;SDS011;23843;51.320;12.340;2022-10-16T09:21:07;0.40;;;0.40;;
38037;SDS011;23843;51.320;12.340;2022-10-16T09:23:39;0.47;;;0.30;;
38037;SDS011;23843;51.320;12.340;2022-10-16T09:26:04;0.65;;;0.40;;
38037;SDS011;23843;51.320;12.340;2022-10-16T09:28:34;0.30;;;0.30;;
38037;SDS011;23843;51.320;12.340;2022-10-16T09:31:01;0.40;;;0.40;;
38037;SDS011;23843;51.320;12.340;2022-10-16T09:33:28;0.32;;;0.32;;
38037;SDS011;23843;51.320;12.340;2022-10-16T09:35:58;0.40;;;0.40;;
38037;SDS011;23843;51.320;12.340;2022-10-16T09:38:25;1.00;;;1.00;;
38037;SDS011;23843;51.320;12.340;2022-10-16T09:40:51;0.40;;;0.40;;
38037;SDS011;23843;51.320;12.340;2022-10-16T09:43:20;0.40;;;0.40;;
38037;SDS011;23843;51.320;12.340;2022-10-16T09:45:58;0.47;;;0.38;;
38037;SDS011;23843;51.320;12.340;2022-10-16T09:48:27;0.35;;;0.35;;
38037;SDS011;23843;51.320;12.340;2022-10-16T09:50:57;0.30;;;0.30;;
38037;SDS011;23843;51.320;12.340;2022-10-16T09:53:23;0.30;;;0.30;;
38037;SDS011;23843;51.320;12.340;2022-10-16T09:56:02;0.55;;;0.55;;
38037;SDS011;23843;51.320;12.340;2022-10-16T09:58:27;0.80;;;0.80;;
38037;SDS011;23843;51.320;12.340;2022-10-16T10:00:53;1.00;;;1.00;;
38037;SDS011;23843;51.320;12.340;2022-10-16T10:03:27;0.30;;;0.30;;
38037;SDS011;23843;51.320;12.340;2022-10-16T10:05:59;0.50;;;0.40;;
38037;SDS011;23843;51.320;12.340;2022-10-16T10:08:29;0.43;;;0.43;;
38037;SDS011;23843;51.320;12.340;2022-10-16T10:10:54;0.75;;;0.75;;
38037;SDS011;23843;51.320;12.340;2022-10-16T10:13:20;0.40;;;0.40;;
38037;SDS011;23843;51.320;12.340;2022-10-16T10:15:46;0.43;;;0.40;;
38037;SDS011;23843;51.320;12.340;2022-10-16T10:18:16;1.95;;;0.60;;
38037;SDS011;23843;51.320;12.340;2022-10-16T10:20:44;0.50;;;0.50;;
38037;SDS011;23843;51.320;12.340;2022-10-16T10:23:19;0.50;;;0.50;;
38037;SDS011;23843;51.320;12.340;2022-10-16T10:25:49;0.50;;;0.50;;
38037;SDS011;23843;51.320;12.340;2022-10-16T10:28:24;0.50;;;0.50;;
38037;SDS011;23843;51.320;12.340;2022-10-16T10:31:13;0.77;;;0.50;;
38037;SDS011;23843;51.320;12.340;2022-10-16T10:33:43;0.50;;;0.50;;
38037;SDS011;23843;51.320;12.340;2022-10-16T10:36:16;0.40;;;0.40;;
38037;SDS011;23843;51.320;12.340;2022-10-16T10:38:51;0.50;;;0.50;;
38037;SDS011;23843;51.320;12.340;2022-10-16T10:41:24;0.40;;;0.40;;
38037;SDS011;23843;51.320;12.340;2022-10-16T10:44:03;0.90;;;0.90;;
38037;SDS011;23843;51.320;12.340;2022-10-16T10:46:38;0.35;;;0.35;;
38037;SDS011;23843;51.320;12.340;2022-10-16T10:49:09;0.45;;;0.45;;
38037;SDS011;23843;51.320;12.340;2022-10-16T10:51:44;0.50;;;0.50;;
38037;SDS011;23843;51.320;12.340;2022-10-16T10:54:20;0.82;;;0.80;;
38037;SDS011;23843;51.320;12.340;2022-10-16T10:56:55;0.57;;;0.57;;
38037;SDS011;23843;51.320;12.340;2022-10-16T10:59:28;1.25;;;1.20;;
38037;SDS011;23843;51.320;12.340;2022-10-16T11:02:03;0.50;;;0.50;;
38037;SDS011;23843;51.320;12.340;2022-10-16T11:04:42;0.70;;;0.70;;
38037;SDS011;23843;51.320;12.340;2022-10-16T11:07:23;0.70;;;0.68;;
38037;SDS011;23843;51.320;12.340;2022-10-16T11:09:53;1.00;;;1.00;;
38037;SDS011;23843;51.320;12.340;2022-10-16T11:12:24;0.60;;;0.60;;
38037;SDS011;23843;51.320;12.340;2022-10-16T11:14:54;0.75;;;0.75;;
38037;SDS011;23843;51.320;12.340;2022-10-16T11:17:25;0.70;;;0.70;;
38037;SDS011;23843;51.320;12.340;2022-10-16T11:19:55;1.10;;;1.00;;
38037;SDS011;23843;51.320;12.340;2022-10-16T11:22:25;0.80;;;0.80;;
38037;SDS011;23843;51.320;12.340;2022-10-16T11:24:59;0.80;;;0.80;;
38037;SDS011;23843;51.320;12.340;2022-10-16T11:27:33;0.60;;;0.60;;
38037;SDS011;23843;51.320;12.340;2022-10-16T11:30:04;0.90;;;0.90;;
38037;SDS011;23843;51.320;12.340;2022-10-16T11:32:40;0.73;;;0.70;;
38037;SDS011;23843;51.320;12.340;2022-10-16T11:35:17;0.60;;;0.60;;
38037;SDS011;23843;51.320;12.340;2022-10-16T11:37:49;0.50;;;0.50;;
38037;SDS011;23843;51.320;12.340;2022-10-16T11:40:20;0.40;;;0.40;;
38037;SDS011;23843;51.320;12.340;2022-10-16T11:42:50;0.40;;;0.40;;
38037;SDS011;23843;51.320;12.340;2022-10-16T11:45:23;0.40;;;0.40;;
38037;SDS011;23843;51.320;12.340;2022-10-16T11:47:54;0.50;;;0.50;;
38037;SDS011;23843;51.320;12.340;2022-10-16T11:50:28;0.50;;;0.50;;
38037;SDS011;23843;51.320;12.340;2022-10-16T11:53:00;0.43;;;0.40;;
38037;SDS011;23843;51.320;12.340;2022-10-16T11:55:30;0.90;;;0.90;;
38037;SDS011;23843;51.320;12.340;2022-10-16T11:57:59;0.50;;;0.50;;
38037;SDS011;23843;51.320;12.340;2022-10-16T12:00:31;0.55;;;0.55;;
38037;SDS011;23843;51.320;12.340;2022-10-16T12:03:04;0.60;;;0.60;;
38037;SDS011;23843;51.320;12.340;2022-10-16T12:05:40;0.50;;;0.50;;
38037;SDS011;23843;51.320;12.340;2022-10-16T12:08:21;0.60;;;0.60;;
38037;SDS011;23843;51.320;12.340;2022-10-16T12:10:47;1.17;;;1.10;;
38037;SDS011;23843;51.320;12.340;2022-10-16T12:16:07;0.73;;;0.70;;
38037;SDS011;23843;51.320;12.340;2022-10-16T12:18:46;0.70;;;0.70;;
38037;SDS011;23843;51.320;12.340;2022-10-16T12:21:13;0.50;;;0.50;;
38037;SDS011;23843;51.320;12.340;2022-10-16T12:23:49;0.40;;;0.40;;
38037;SDS011;23843;51.320;12.340;2022-10-16T12:26:23;0.98;;;0.98;;
38037;SDS011;23843;51.320;12.340;2022-10-16T12:28:50;1.92;;;1.40;;
38037;SDS011;23843;51.320;12.340;2022-10-16T12:31:16;1.45;;;1.17;;
38037;SDS011;23843;51.320;12.340;2022-10-16T12:33:41;0.90;;;0.90;;
38037;SDS011;23843;51.320;12.340;2022-10-16T12:36:26;0.60;;;0.60;;
38037;SDS011;23843;51.320;12.340;2022-10-16T12:38:55;0.60;;;0.60;;
38037;SDS011;23843;51.320;12.340;2022-10-16T12:41:24;0.70;;;0.65;;
38037;SDS011;23843;51.320;12.340;2022-10-16T12:43:51;0.50;;;0.50;;
38037;SDS011;23843;51.320;12.340;2022-10-16T12:46:21;0.47;;;0.47;;
38037;SDS011;23843;51.320;12.340;2022-10-16T12:48:48;0.50;;;0.50;;
38037;SDS011;23843;51.320;12.340;2022-10-16T12:51:21;0.45;;;0.40;;
38037;SDS011;23843;51.320;12.340;2022-10-16T12:53:58;0.60;;;0.60;;
38037;SDS011;23843;51.320;12.340;2022-10-16T12:56:25;0.40;;;0.40;;
38037;SDS011;23843;51.320;12.340;2022-10-16T12:59:02;0.95;;;0.95;;
38037;SDS011;23843;51.320;12.340;2022-10-16T13:01:37;0.30;;;0.30;;
38037;SDS011;23843;51.320;12.340;2022-10-16T13:04:14;0.40;;;0.40;;
38037;SDS011;23843;51.320;12.340;2022-10-16T13:06:56;0.50;;;0.50;;
38037;SDS011;23843;51.320;12.340;2022-10-16T13:09:42;0.80;;;0.80;;
38037;SDS011;23843;51.320;12.340;2022-10-16T13:12:25;0.30;;;0.30;;
38037;SDS011;23843;51.320;12.340;2022-10-16T13:15:09;0.30;;;0.30;;
38037;SDS011;23843;51.320;12.340;2022-10-16T13:17:50;0.47;;;0.47;;
38037;SDS011;23843;51.320;12.340;2022-10-16T13:20:22;0.32;;;0.32;;
38037;SDS011;23843;51.320;12.340;2022-10-16T13:22:56;0.60;;;0.60;;
38037;SDS011;23843;51.320;12.340;2022-10-16T13:25:36;0.30;;;0.30;;
38037;SDS011;23843;51.320;12.340;2022-10-16T13:28:14;0.20;;;0.20;;
38037;SDS011;23843;51.320;12.340;2022-10-16T13:30:50;0.30;;;0.30;;
38037;SDS011;23843;51.320;12.340;2022-10-16T13:33:17;0.38;;;0.38;;
38037;SDS011;23843;51.320;12.340;2022-10-16T13:35:47;0.40;;;0.40;;
38037;SDS011;23843;51.320;12.340;2022-10-16T13:38:14;0.75;;;0.75;;
38037;SDS011;23843;51.320;12.340;2022-10-16T13:40:51;1.10;;;1.00;;
38037;SDS011;23843;51.320;12.340;2022-10-16T13:43:18;0.70;;;0.70;;
38037;SDS011;23843;51.320;12.340;2022-10-16T13:45:53;1.40;;;1.30;;
38037;SDS011;23843;51.320;12.340;2022-10-16T13:48:23;0.70;;;0.70;;
38037;SDS011;23843;51.320;12.340;2022-10-16T13:50:58;0.68;;;0.68;;
38037;SDS011;23843;51.320;12.340;2022-10-16T13:53:24;0.45;;;0.45;;
38037;SDS011;23843;51.320;12.340;2022-10-16T13:55:51;0.55;;;0.50;;
38037;SDS011;23843;51.320;12.340;2022-10-16T13:58:16;0.40;;;0.40;;
38037;SDS011;23843;51.320;12.340;2022-10-16T14:00:52;0.40;;;0.40;;
38037;SDS011;23843;51.320;12.340;2022-10-16T14:03:19;0.50;;;0.50;;
38037;SDS011;23843;51.320;12.340;2022-10-16T14:05:45;0.40;;;0.40;;
38037;SDS011;23843;51.320;12.340;2022-10-16T14:08:14;0.88;;;0.88;;
38037;SDS011;23843;51.320;12.340;2022-10-16T14:10:39;0.20;;;0.20;;
38037;SDS011;23843;51.320;12.340;2022-10-16T14:13:07;0.20;;;0.20;;
38037;SDS011;23843;51.320;12.340;2022-10-16T14:15:40;0.22;;;0.22;;
38037;SDS011;23843;51.320;12.340;2022-10-16T14:18:13;0.20;;;0.20;;
38037;SDS011;23843;51.320;12.340;2022-10-16T14:20:43;0.20;;;0.20;;
38037;SDS011;23843;51.320;12.340;2022-10-16T14:23:18;0.25;;;0.25;;
38037;SDS011;23843;51.320;12.340;2022-10-16T14:25:46;0.20;;;0.20;;
38037;SDS011;23843;51.320;12.340;2022-10-16T14:28:16;0.20;;;0.20;;
38037;SDS011;23843;51.320;12.340;2022-10-16T14:30:49;0.10;;;0.10;;
38037;SDS011;23843;51.320;12.340;2022-10-16T14:33:21;0.20;;;0.20;;
38037;SDS011;23843;51.320;12.340;2022-10-16T14:35:57;0.20;;;0.20;;
38037;SDS011;23843;51.320;12.340;2022-10-16T14:38:26;0.20;;;0.20;;
38037;SDS011;23843;51.320;12.340;2022-10-16T14:40:51;0.10;;;0.10;;
38037;SDS011;23843;51.320;12.340;2022-10-16T14:43:20;0.20;;;0.20;;
38037;SDS011;23843;51.320;12.340;2022-10-16T14:45:49;0.20;;;0.20;;
38037;SDS011;23843;51.320;12.340;2022-10-16T14:48:17;0.90;;;0.90;;
38037;SDS011;23843;51.320;12.340;2022-10-16T14:50:44;0.70;;;0.70;;
38037;SDS011;23843;51.320;12.340;2022-10-16T14:53:10;1.98;;;1.48;;
38037;SDS011;23843;51.320;12.340;2022-10-16T14:55:36;2.15;;;1.40;;
38037;SDS011;23843;51.320;12.340;2022-10-16T14:58:02;1.63;;;1.05;;
38037;SDS011;23843;51.320;12.340;2022-10-16T15:00:29;1.10;;;1.00;;
38037;SDS011;23843;51.320;12.340;2022-10-16T15:02:54;0.80;;;0.80;;
38037;SDS011;23843;51.320;12.340;2022-10-16T15:05:20;1.27;;;1.17;;
38037;SDS011;23843;51.320;12.340;2022-10-16T15:07:47;0.40;;;0.40;;
38037;SDS011;23843;51.320;12.340;2022-10-16T15:10:12;0.50;;;0.50;;
38037;SDS011;23843;51.320;12.340;2022-10-16T15:12:38;0.80;;;0.80;;
38037;SDS011;23843;51.320;12.340;2022-10-16T15:17:52;0.20;;;0.20;;
38037;SDS011;23843;51.320;12.340;2022-10-16T15:20:18;0.20;;;0.20;;
38037;SDS011;23843;51.320;12.340;2022-10-16T15:22:43;0.10;;;0.10;;
38037;SDS011;23843;51.320;12.340;2022-10-16T15:25:10;0.10;;;0.10;;
38037;SDS011;23843;51.320;12.340;2022-10-16T15:27:47;0.13;;;0.13;;
38037;SDS011;23843;51.320;12.340;2022-10-16T15:30:12;0.10;;;0.10;;
38037;SDS011;23843;51.320;12.340;2022-10-16T15:32:38;0.10;;;0.10;;
38037;SDS011;23843;51.320;12.340;2022-10-16T15:35:07;0.28;;;0.25;;
38037;SDS011;23843;51.320;12.340;2022-10-16T15:37:33;0.40;;;0.40;;
38037;SDS011;23843;51.320;12.340;2022-10-16T15:39:58;0.50;;;0.20;;
38037;SDS011;23843;51.320;12.340;2022-10-16T15:42:24;0.20;;;0.20;;
38037;SDS011;23843;51.320;12.340;2022-10-16T15:44:49;0.10;;;0.10;;
38037;SDS011;23843;51.320;12.340;2022-10-16T15:47:15;0.20;;;0.20;;
38037;SDS011;23843;51.320;12.340;2022-10-16T15:49:40;0.20;;;0.20;;
38037;SDS011;23843;51.320;12.340;2022-10-16T15:52:07;0.10;;;0.10;;
38037;SDS011;23843;51.320;12.340;2022-10-16T15:54:32;0.10;;;0.10;;
38037;SDS011;23843;51.320;12.340;2022-10-16T15:56:58;0.10;;;0.10;;
38037;SDS011;23843;51.320;12.340;2022-10-16T15:59:23;0.17;;;0.17;;
38037;SDS011;23843;51.320;12.340;2022-10-16T16:01:48;0.10;;;0.10;;
38037;SDS011;23843;51.320;12.340;2022-10-16T16:04:14;0.20;;;0.10;;
38037;SDS011;23843;51.320;12.340;2022-10-16T16:06:39;0.10;;;0.10;;
38037;SDS011;23843;51.320;12.340;2022-10-16T16:09:06;0.10;;;0.10;;
38037;SDS011;23843;51.320;12.340;2022-10-16T16:11:31;0.10;;;0.10;;
38037;SDS011;23843;51.320;12.340;2022-10-16T16:13:57;0.10;;;0.10;;
38037;SDS011;23843;51.320;12.340;2022-10-16T16:16:22;0.10;;;0.10;;
38037;SDS011;23843;51.320;12.340;2022-10-16T16:18:47;0.10;;;0.10;;
38037;SDS011;23843;51.320;12.340;2022-10-16T16:21:13;0.20;;;0.20;;
38037;SDS011;23843;51.320;12.340;2022-10-16T16:23:38;0.20;;;0.20;;
38037;SDS011;23843;51.320;12.340;2022-10-16T16:26:07;0.25;;;0.25;;
38037;SDS011;23843;51.320;12.340;2022-10-16T16:28:35;0.25;;;0.25;;
38037;SDS011;23843;51.320;12.340;2022-10-16T16:31:00;0.20;;;0.20;;
38037;SDS011;23843;51.320;12.340;2022-10-16T16:33:26;0.20;;;0.20;;
38037;SDS011;23843;51.320;12.340;2022-10-16T16:35:55;0.20;;;0.20;;
38037;SDS011;23843;51.320;12.340;2022-10-16T16:38:21;0.57;;;0.57;;
38037;SDS011;23843;51.320;12.340;2022-10-16T16:40:47;0.17;;;0.17;;
38037;SDS011;23843;51.320;12.340;2022-10-16T16:43:13;0.20;;;0.20;;
38037;SDS011;23843;51.320;12.340;2022-10-16T16:45:39;0.20;;;0.20;;
38037;SDS011;23843;51.320;12.340;2022-10-16T16:48:04;0.25;;;0.20;;
38037;SDS011;23843;51.320;12.340;2022-10-16T16:50:31;0.10;;;0.10;;
38037;SDS011;23843;51.320;12.340;2022-10-16T16:53:00;0.30;;;0.30;;
38037;SDS011;23843;51.320;12.340;2022-10-16T16:55:25;0.30;;;0.30;;
38037;SDS011;23843;51.320;12.340;2022-10-16T16:57:51;0.35;;;0.35;;
38037;SDS011;23843;51.320;12.340;2022-10-16T17:00:17;0.70;;;0.70;;
38037;SDS011;23843;51.320;12.340;2022-10-16T17:02:43;0.57;;;0.50;;
38037;SDS011;23843;51.320;12.340;2022-10-16T17:05:08;0.60;;;0.50;;
38037;SDS011;23843;51.320;12.340;2022-10-16T17:07:34;0.30;;;0.30;;
38037;SDS011;23843;51.320;12.340;2022-10-16T17:10:00;0.30;;;0.30;;
38037;SDS011;23843;51.320;12.340;2022-10-16T17:12:25;0.25;;;0.25;;
38037;SDS011;23843;51.320;12.340;2022-10-16T17:14:50;0.40;;;0.40;;
38037;SDS011;23843;51.320;12.340;2022-10-16T17:17:17;0.40;;;0.40;;
38037;SDS011;23843;51.320;12.340;2022-10-16T17:19:43;0.50;;;0.50;;
38037;SDS011;23843;51.320;12.340;2022-10-16T17:22:08;0.40;;;0.40;;
38037;SDS011;23843;51.320;12.340;2022-10-16T17:24:33;0.52;;;0.52;;
38037;SDS011;23843;51.320;12.340;2022-10-16T17:26:59;0.40;;;0.40;;
38037;SDS011;23843;51.320;12.340;2022-10-16T17:29:24;0.50;;;0.50;;
38037;SDS011;23843;51.320;12.340;2022-10-16T17:31:50;0.40;;;0.40;;
38037;SDS011;23843;51.320;12.340;2022-10-16T17:34:17;0.30;;;0.30;;
38037;SDS011;23843;51.320;12.340;2022-10-16T17:36:42;0.30;;;0.30;;
38037;SDS011;23843;51.320;12.340;2022-10-16T17:39:09;0.20;;;0.20;;
38037;SDS011;23843;51.320;12.340;2022-10-16T17:41:36;0.20;;;0.20;;
38037;SDS011;23843;51.320;12.340;2022-10-16T17:44:02;0.20;;;0.20;;
38037;SDS011;23843;51.320;12.340;2022-10-16T17:46:29;0.30;;;0.30;;
38037;SDS011;23843;51.320;12.340;2022-10-16T17:48:54;0.30;;;0.30;;
38037;SDS011;23843;51.320;12.340;2022-10-16T17:51:23;0.20;;;0.20;;
38037;SDS011;23843;51.320;12.340;2022-10-16T17:53:51;0.88;;;0.88;;
38037;SDS011;23843;51.320;12.340;2022-10-16T17:56:17;0.40;;;0.40;;
38037;SDS011;23843;51.320;12.340;2022-10-16T17:58:43;0.73;;;0.73;;
38037;SDS011;23843;51.320;12.340;2022-10-16T18:01:13;1.27;;;1.17;;
38037;SDS011;23843;51.320;12.340;2022-10-16T18:03:40;1.00;;;0.90;;
38037;SDS011;23843;51.320;12.340;2022-10-16T18:06:06;0.80;;;0.80;;
38037;SDS011;23843;51.320;12.340;2022-10-16T18:08:33;1.20;;;1.10;;
38037;SDS011;23843;51.320;12.340;2022-10-16T18:10:59;0.80;;;0.60;;
38037;SDS011;23843;51.320;12.340;2022-10-16T18:13:24;0.60;;;0.60;;
38037;SDS011;23843;51.320;12.340;2022-10-16T18:15:58;0.50;;;0.50;;
38037;SDS011;23843;51.320;12.340;2022-10-16T18:18:23;0.40;;;0.40;;
38037;SDS011;23843;51.320;12.340;2022-10-16T18:20:54;0.40;;;0.40;;
38037;SDS011;23843;51.320;12.340;2022-10-16T18:23:20;0.30;;;0.30;;
38037;SDS011;23843;51.320;12.340;2022-10-16T18:25:49;0.40;;;0.40;;
38037;SDS011;23843;51.320;12.340;2022-10-16T18:28:15;0.30;;;0.30;;
38037;SDS011;23843;51.320;12.340;2022-10-16T18:30:40;0.40;;;0.40;;
38037;SDS011;23843;51.320;12.340;2022-10-16T18:33:05;0.40;;;0.40;;
38037;SDS011;23843;51.320;12.340;2022-10-16T18:35:33;0.50;;;0.50;;
38037;SDS011;23843;51.320;12.340;2022-10-16T18:37:59;0.40;;;0.40;;
38037;SDS011;23843;51.320;12.340;2022-10-16T18:40:24;0.60;;;0.60;;
38037;SDS011;23843;51.320;12.340;2022-10-16T18:42:51;0.50;;;0.50;;
38037;SDS011;23843;51.320;12.340;2022-10-16T18:45:16;0.40;;;0.40;;
38037;SDS011;23843;51.320;12.340;2022-10-16T18:47:42;0.63;;;0.50;;
38037;SDS011;23843;51.320;12.340;2022-10-16T18:50:07;0.60;;;0.50;;
38037;SDS011;23843;51.320;12.340;2022-10-16T18:52:33;0.70;;;0.70;;
38037;SDS011;23843;51.320;12.340;2022-10-16T18:54:58;1.10;;;1.00;;
38037;SDS011;23843;51.320;12.340;2022-10-16T18:57:25;0.60;;;0.60;;
38037;SDS011;23843;51.320;12.340;2022-10-16T18:59:53;1.05;;;0.80;;
38037;SDS011;23843;51.320;12.340;2022-10-16T19:02:18;0.70;;;0.63;;
38037;SDS011;23843;51.320;12.340;2022-10-16T19:04:43;0.60;;;0.60;;
38037;SDS011;23843;51.320;12.340;2022-10-16T19:07:09;0.50;;;0.50;;
38037;SDS011;23843;51.320;12.340;2022-10-16T19:09:34;0.43;;;0.43;;
38037;SDS011;23843;51.320;12.340;2022-10-16T19:11:59;0.40;;;0.40;;
38037;SDS011;23843;51.320;12.340;2022-10-16T19:14:25;0.40;;;0.40;;
38037;SDS011;23843;51.320;12.340;2022-10-16T19:16:52;0.50;;;0.40;;